Worthington, MN (56187)

11:57 PM CDT on July 27, 2016 (GMT -0500)
Worthington | | Change Station

Elev 1587 ft 43.56 °N, 95.57 °W | Updated 7 seconds ago

Clear
Clear
67.1 °F
Feels Like 67.1 °F
N
5.1
Wind Variable Wind from NNE
Gusts 8.0 mph

Today
High -- | Low -- °F
--% Chance of Precip.
Yesterday
High -- | Low -- °F
Precip. -- in
Pressure 30.03 in
Visibility 10.0 miles
Clouds Clear
Dew Point 62 °F
Humidity 84%
Rainfall in
Snow Depth Not available.
6:06 AM 8:50 PM
Waning Crescent, 36% visible
METAR KOTG 280356Z AUTO 35006KT 10SM CLR 19/17 A3004 RMK AO2 SLP167 T01890172
Pressure 30.03 in
Visibility 10.0 miles
Clouds Clear
Dew Point 62 °F
Humidity 84%
Rainfall in
Snow Depth Not available.
6:06 AM 8:50 PM
Waning Crescent, 36% visible
METAR KOTG 280356Z AUTO 35006KT 10SM CLR 19/17 A3004 RMK AO2 SLP167 T01890172

10-Day Weather Forecast

Almanac

Astronomy

Jul. 27, 2016 Rise Set
Actual Time
Civil Twilight
Nautical Twilight
Astronomical Twilight
Moon
Length of Visible Light
Length of Day
Tomorrow will be .
, % of the Moon is Illuminated

Today's Extremes

State Highs State Lows

Community

WunderPhotos

Upload Photos

1,928,061 photos uploaded!

WunderBlog® & News

Nearby

Air Quality

  Air Quality AQ Index Pollutant
Not available.

Snow Depth

Station Depth Elevation

Earthquake Activity

City Distance Mag. Time & Date
Minimum magnitude displayed is 2.5.

Coastal Water Temperatures

Place Temperature

Stations

Nearby Weather Stations

Station Location Temp. Windchill Dew Point Humidity Wind Precip. Elev Updated Type
                   

Watches & Warnings

There are currently no watches in effect.